Yeaman, Kentucky
Current Conditions -  °F | °C
As of 5:56 AM on Monday 22 Dec 2014 (Local Time) from KOWB Reporting Station
Overcast Overcast  
Wind Chill: 37°   Ceiling: 1800
Heat Index: 42°   Visibility: 10mi
Dew Point: 35°   Wind: 8mph
Humidity: 76%   Direction: 120°ESE
Pressure: 29.93"   Gusts: NA
Location:  37.6216°N, 86.7165°W
Report Text: KOWB 221156Z 12007KT 10SM SCT012 OVC018 06/02 A2993 RMK AO2 56011 T00550016 10055 20005 SLP138
Loading
Personal Weather Stations






























Interactive Weather Map New forecast layout! Learn more

10-Day Weather Forecast

Advertisements
Track Severe Weather on mobile